Ship Status Report: callsign BATFR15

sailwx.info

Track history (hours):
 
Tides and Currents Weather Stations Pressure Air Temp Water Temp Dewpoint Dewpoint Depression Visibility Wind Speed Wind Dir Waves Ship Positions

Callsign BATFR15 (name unknown)

Last reported at 2016-Jun-30 13:00 UTC. Time now 2016-Jun-30 14:08 UTC.
Position N 39°54' W 032°18'.

Wind from 320 at 11 knots

Barometer 1034.8 mb
Air temperature 20.9 ° C
Water temperature 21.4 ° C

Date/timePositionNaut miles runAvg speedWind from/ knotsBaromVisibWave heightAir tempDewpointWater temp
2016-Jun-30 13:00N 39°54' W 032°18'2222.0 320 / 111034.8 20.9 21.4
2016-Jun-30 12:00N 39°42' W 032°42'5919.6 350 / 101034.7 5.4 20.7 20.9
2016-Jun-30 09:00N 39°06' W 033°42'1818.4 350 / 121034.5 5.4 1.021.0 20.9
2016-Jun-30 08:00N 38°54' W 034°00'1515.2 030 / 111034.2 20.9 21.4
2016-Jun-30 07:00N 38°48' W 034°18'4120.3 1034.3 20.9 21.5
2016-Jun-30 05:00N 38°24' W 035°00'1918.5 230 / 11034.6 20.2 21.2
2016-Jun-30 04:00N 38°12' W 035°18'7819.5 070 / 51034.6 19.9 21.2
2016-Jun-30 00:00N 37°24' W 036°36'7518.7 090 / 121034.7 5.4 1.020.9 21.7
2016-Jun-29 20:00N 36°36' W 037°48'7518.8 130 / 121032.8 21.7 22.0
2016-Jun-29 16:00N 35°48' W 039°00'6120.2 120 / 171031.8 22.2 22.7
2016-Jun-29 13:00N 35°12' W 040°00'1919.0 110 / 141032.0 22.4 23.7
2016-Jun-29 12:00N 35°00' W 040°18'3417.2 110 / 151031.6 22.2 23.7
2016-Jun-29 10:00N 34°36' W 040°48'8020.1 110 / 151030.4 22.4 23.7
2016-Jun-29 06:00N 33°42' W 042°00'1919.2 100 / 181029.110.8 22.7 24.0
2016-Jun-29 05:00N 33°30' W 042°18'7318.3 100 / 161028.9 22.7 24.2
2016-Jun-29 01:00N 32°42' W 043°24'2423.5 090 / 141029.6 23.2 24.4
2016-Jun-29 00:00N 32°24' W 043°42'1919.4 090 / 141029.5 5.4 23.4 24.4
2016-Jun-28 23:00N 32°12' W 044°00'1919.4 090 / 131029.0 23.4 24.2
2016-Jun-28 22:00N 32°00' W 044°18'1919.4 100 / 141028.7 23.5 24.4
2016-Jun-28 21:00N 31°48' W 044°36'1615.8 100 / 161028.310.8 23.9 25.0
2016-Jun-28 20:00N 31°36' W 044°48'1919.5 100 / 161027.4 24.5 25.4
2016-Jun-28 19:00N 31°24' W 045°06'2019.5 100 / 161027.3 24.9 25.7
2016-Jun-28 18:00N 31°12' W 045°24'2120.7 110 / 141027.310.8 2.025.2 25.7
2016-Jun-28 17:00N 30°54' W 045°36'2019.6 110 / 161027.3 25.2 25.7
2016-Jun-28 16:00N 30°42' W 045°54'2019.6 110 / 161027.1 25.4 25.9
2016-Jun-28 15:00N 30°30' W 046°12'2019.6 110 / 141027.3 25.2 25.9
2016-Jun-28 14:00N 30°18' W 046°30'2120.8 100 / 141027.2 25.4 25.9
2016-Jun-28 13:00N 30°00' W 046°42'2019.7 100 / 141027.1 25.2 25.9
2016-Jun-28 12:00N 29°48' W 047°00'2019.7 100 / 131026.7 5.4 1.025.2 25.7
2016-Jun-28 11:00N 29°36' W 047°18'1615.9 100 / 141026.4 25.2 25.7
2016-Jun-28 10:00N 29°24' W 047°30'5919.8 110 / 141026.0 25.0 25.7
2016-Jun-28 07:00N 28°42' W 048°18'4020.0 120 / 181024.8 24.9 26.2
2016-Jun-28 05:00N 28°12' W 048°48'2019.9 110 / 151024.8 25.0 26.2
2016-Jun-28 04:00N 28°00' W 049°06'2019.9 120 / 171025.1 25.0 26.4
2016-Jun-28 03:00N 27°48' W 049°24'4020.0 110 / 131025.5 5.4 2.025.4 26.4
2016-Jun-28 01:00N 27°18' W 049°54'3618.0 110 / 141025.5 25.7 26.7
2016-Jun-27 23:00N 26°54' W 050°24'2120.9 110 / 161024.2 25.5 26.7
2016-Jun-27 22:00N 26°36' W 050°36'2020.1 110 / 161023.8 25.9 26.9
2016-Jun-27 21:00N 26°24' W 050°54'2424.2 110 / 141023.410.8 26.4 27.2
2016-Jun-27 20:00N 26°06' W 051°12'1616.1 100 / 131022.9 26.4 27.0
2016-Jun-27 19:00N 25°54' W 051°24'1616.1 100 / 151022.6 26.4 27.2
2016-Jun-27 18:00N 25°42' W 051°36'4020.2 100 / 161022.810.8 2.026.4 26.9
2016-Jun-27 16:00N 25°12' W 052°06'2020.2 110 / 161022.5 26.7 27.2
2016-Jun-27 15:00N 25°00' W 052°24'2121.0 110 / 191022.410.8 2.026.7 26.9
2016-Jun-27 14:00N 24°42' W 052°36'2020.3 110 / 191022.4 26.7 27.2
2016-Jun-27 13:00N 24°30' W 052°54'1616.2 110 / 211021.8 26.0 27.4
2016-Jun-27 12:00N 24°18' W 053°06'4120.3 110 / 221021.5 5.4 26.2 27.2
2016-Jun-27 10:00N 23°48' W 053°36'1616.3 110 / 211020.7 25.2 27.2
2016-Jun-27 09:00N 23°36' W 053°48'4120.4 110 / 211020.310.8 24.9 27.4
2016-Jun-27 07:00N 23°06' W 054°18'2020.5 110 / 181019.4 26.4 27.4
2016-Jun-27 06:00N 22°54' W 054°36'2121.1 100 / 181019.4 5.4 2.026.4 27.4
2016-Jun-27 05:00N 22°36' W 054°48'2120.5 110 / 161019.5 26.2 27.4
2016-Jun-27 04:00N 22°24' W 055°06'7819.5 110 / 241019.1 25.7 27.4
2016-Jun-27 00:00N 21°24' W 056°00'3718.7 120 / 141019.6 5.4 25.9 27.7
2016-Jun-26 22:00N 20°54' W 056°24'2120.7 110 / 141018.0 26.9 27.9
2016-Jun-26 21:00N 20°42' W 056°42'1616.4 100 / 131017.6 27.0 28.2
2016-Jun-26 20:00N 20°30' W 056°54'2121.2 090 / 101017.4 27.4 28.2
2016-Jun-26 19:00N 20°12' W 057°06'2120.7 090 / 91017.5 27.4 28.2
2016-Jun-26 18:00N 20°00' W 057°24'2121.2 100 / 121017.410.8 2.027.4 28.2
2016-Jun-26 17:00N 19°42' W 057°36'1616.5 100 / 111017.8 27.7 28.0
2016-Jun-26 16:00N 19°30' W 057°48'2524.7 090 / 111017.9 27.7 28.2
2016-Jun-26 15:00N 19°12' W 058°06'1716.5 100 / 141018.0 27.9 28.2
2016-Jun-26 14:00N 19°00' W 058°18'2121.3 100 / 141018.1 27.7 28.0
2016-Jun-26 13:00N 18°42' W 058°30'1716.5 100 / 151018.1 27.5 28.0
2016-Jun-26 12:00N 18°30' W 058°42'2120.9 090 / 151017.7 5.4 1.027.5 28.0
2016-Jun-26 11:00N 18°18' W 059°00'2121.3 090 / 161017.5 27.2 28.0
2016-Jun-26 10:00N 18°00' W 059°12'1716.6 090 / 151017.0 27.2 28.0
2016-Jun-26 09:00N 17°48' W 059°24'1716.6 080 / 181016.3 27.2 28.2
2016-Jun-26 08:00N 17°36' W 059°36'2121.3 090 / 201015.9 27.2 28.4
2016-Jun-26 07:00N 17°18' W 059°48'2121.0 090 / 181016.0 27.4 28.4
2016-Jun-26 06:00N 17°06' W 060°06'2121.3 080 / 161016.2 5.4 2.026.9 28.2
2016-Jun-26 05:00N 16°48' W 060°18'1716.6 080 / 131016.5 27.4 28.4
2016-Jun-26 04:00N 16°36' W 060°30'2121.4 100 / 161017.2 27.9 28.4
2016-Jun-26 03:00N 16°18' W 060°42'2121.0 090 / 171017.6 5.4 3.027.7 28.4
2016-Jun-26 02:00N 16°06' W 061°00'1717.3 100 / 111017.6 27.9 28.4
2016-Jun-26 01:00N 16°06' W 061°18'1313.0 090 / 121017.1 27.9 28.4
2016-Jun-26 00:00N 16°12' W 061°30'0 0.0 080 / 71016.9 27.7 29.4
2016-Jun-25 10:00N 16°12' W 061°30'6 6.0 090 / 11016.6 26.9 29.4
2016-Jun-25 09:00N 16°06' W 061°30'2412.0 080 / 161015.8 27.9 28.4
2016-Jun-25 07:00N 15°42' W 061°30'3115.3 080 / 281014.9 28.0 28.4
2016-Jun-25 05:00N 15°12' W 061°36'1716.7 100 / 131015.5 28.4 28.4
2016-Jun-25 04:00N 15°00' W 061°24'1313.3 080 / 201015.8 27.9 28.4
2016-Jun-25 03:00N 14°48' W 061°18'1313.3 090 / 131016.3 28.0 28.4
2016-Jun-25 02:00N 14°36' W 061°12'   070 / 141016.6 27.4 28.4
2016-Jun-22 10:00N 14°36' W 061°06'1313.1 090 / 111017.0 26.5 28.2
2016-Jun-22 09:00N 14°42' W 061°18'2726.7 100 / 81016.7 27.4 28.2
2016-Jun-22 08:00N 15°06' W 061°30'1918.9 090 / 191016.5 27.7 28.4
2016-Jun-22 07:00N 15°24' W 061°36'1918.9 090 / 71016.9 27.0 28.4
2016-Jun-22 06:00N 15°42' W 061°30'1818.0 090 / 171017.3 27.4 28.4
2016-Jun-22 05:00N 16°00' W 061°30'1212.0 100 / 161017.7 27.7 28.4
2016-Jun-22 04:00N 16°12' W 061°30'150 5.4 080 / 31018.8 26.5 29.2
2016-Jun-21 00:00N 17°42' W 059°24'1716.6 060 / 211018.810.8 27.7 28.4
2016-Jun-20 23:00N 17°54' W 059°12'2524.8 060 / 201018.5 27.5 28.2
2016-Jun-20 22:00N 18°12' W 058°54'1716.5 060 / 191018.5 27.7 28.2
2016-Jun-20 21:00N 18°24' W 058°42'2121.3 060 / 191018.3 27.9 28.2
2016-Jun-20 20:00N 18°42' W 058°30'2120.8 070 / 191018.5 27.9 28.2
2016-Jun-20 19:00N 18°54' W 058°12'3818.8 060 / 191019.4 28.2 28.2
2016-Jun-20 17:00N 19°24' W 057°48'2524.7 070 / 181020.8 28.0 28.0
2016-Jun-20 16:00N 19°42' W 057°30'1616.5 070 / 181021.4 27.9 27.9
2016-Jun-20 15:00N 19°54' W 057°18'2121.2 070 / 181021.6 5.4 1.027.9 27.9
2016-Jun-20 14:00N 20°12' W 057°06'2120.7 070 / 191021.7 27.7 27.9
2016-Jun-20 13:00N 20°24' W 056°48'   080 / 191022.1 27.5 27.7
Track history (hours):
 
Tides and Currents Weather Stations Pressure Air Temp Water Temp Dewpoint Dewpoint Depression Visibility Wind Speed Wind Dir Waves Ship Positions

Callsign BATFR15 (name unknown)

Last reported at 2016-Jun-30 13:00 UTC. Time now 2016-Jun-30 14:08 UTC.
Position N 39°54' W 032°18'.

Wind from 320 at 11 knots

Barometer 1034.8 mb
Air temperature 20.9 ° C
Water temperature 21.4 ° C

Date/timePositionNaut miles runAvg speedWind from/ knotsBaromVisibWave heightAir tempDewpointWater temp
2016-Jun-30 13:00N 39°54' W 032°18'2222.0 320 / 111034.8 20.9 21.4
2016-Jun-30 12:00N 39°42' W 032°42'5919.6 350 / 101034.7 5.4 20.7 20.9
2016-Jun-30 09:00N 39°06' W 033°42'1818.4 350 / 121034.5 5.4 1.021.0 20.9
2016-Jun-30 08:00N 38°54' W 034°00'1515.2 030 / 111034.2 20.9 21.4
2016-Jun-30 07:00N 38°48' W 034°18'4120.3 1034.3 20.9 21.5
2016-Jun-30 05:00N 38°24' W 035°00'1918.5 230 / 11034.6 20.2 21.2
2016-Jun-30 04:00N 38°12' W 035°18'7819.5 070 / 51034.6 19.9 21.2
2016-Jun-30 00:00N 37°24' W 036°36'7518.7 090 / 121034.7 5.4 1.020.9 21.7
2016-Jun-29 20:00N 36°36' W 037°48'7518.8 130 / 121032.8 21.7 22.0
2016-Jun-29 16:00N 35°48' W 039°00'6120.2 120 / 171031.8 22.2 22.7
2016-Jun-29 13:00N 35°12' W 040°00'1919.0 110 / 141032.0 22.4 23.7
2016-Jun-29 12:00N 35°00' W 040°18'3417.2 110 / 151031.6 22.2 23.7
2016-Jun-29 10:00N 34°36' W 040°48'8020.1 110 / 151030.4 22.4 23.7
2016-Jun-29 06:00N 33°42' W 042°00'1919.2 100 / 181029.110.8 22.7 24.0
2016-Jun-29 05:00N 33°30' W 042°18'7318.3 100 / 161028.9 22.7 24.2
2016-Jun-29 01:00N 32°42' W 043°24'2423.5 090 / 141029.6 23.2 24.4
2016-Jun-29 00:00N 32°24' W 043°42'1919.4 090 / 141029.5 5.4 23.4 24.4
2016-Jun-28 23:00N 32°12' W 044°00'1919.4 090 / 131029.0 23.4 24.2
2016-Jun-28 22:00N 32°00' W 044°18'1919.4 100 / 141028.7 23.5 24.4
2016-Jun-28 21:00N 31°48' W 044°36'1615.8 100 / 161028.310.8 23.9 25.0
2016-Jun-28 20:00N 31°36' W 044°48'1919.5 100 / 161027.4 24.5 25.4
2016-Jun-28 19:00N 31°24' W 045°06'2019.5 100 / 161027.3 24.9 25.7
2016-Jun-28 18:00N 31°12' W 045°24'2120.7 110 / 141027.310.8 2.025.2 25.7
2016-Jun-28 17:00N 30°54' W 045°36'2019.6 110 / 161027.3 25.2 25.7
2016-Jun-28 16:00N 30°42' W 045°54'2019.6 110 / 161027.1 25.4 25.9
2016-Jun-28 15:00N 30°30' W 046°12'2019.6 110 / 141027.3 25.2 25.9
2016-Jun-28 14:00N 30°18' W 046°30'2120.8 100 / 141027.2 25.4 25.9
2016-Jun-28 13:00N 30°00' W 046°42'2019.7 100 / 141027.1 25.2 25.9
2016-Jun-28 12:00N 29°48' W 047°00'2019.7 100 / 131026.7 5.4 1.025.2 25.7
2016-Jun-28 11:00N 29°36' W 047°18'1615.9 100 / 141026.4 25.2 25.7
2016-Jun-28 10:00N 29°24' W 047°30'5919.8 110 / 141026.0 25.0 25.7
2016-Jun-28 07:00N 28°42' W 048°18'4020.0 120 / 181024.8 24.9 26.2
2016-Jun-28 05:00N 28°12' W 048°48'2019.9 110 / 151024.8 25.0 26.2
2016-Jun-28 04:00N 28°00' W 049°06'2019.9 120 / 171025.1 25.0 26.4
2016-Jun-28 03:00N 27°48' W 049°24'4020.0 110 / 131025.5 5.4 2.025.4 26.4
2016-Jun-28 01:00N 27°18' W 049°54'3618.0 110 / 141025.5 25.7 26.7
2016-Jun-27 23:00N 26°54' W 050°24'2120.9 110 / 161024.2 25.5 26.7
2016-Jun-27 22:00N 26°36' W 050°36'2020.1 110 / 161023.8 25.9 26.9
2016-Jun-27 21:00N 26°24' W 050°54'2424.2 110 / 141023.410.8 26.4 27.2
2016-Jun-27 20:00N 26°06' W 051°12'1616.1 100 / 131022.9 26.4 27.0
2016-Jun-27 19:00N 25°54' W 051°24'1616.1 100 / 151022.6 26.4 27.2
2016-Jun-27 18:00N 25°42' W 051°36'4020.2 100 / 161022.810.8 2.026.4 26.9
2016-Jun-27 16:00N 25°12' W 052°06'2020.2 110 / 161022.5 26.7 27.2
2016-Jun-27 15:00N 25°00' W 052°24'2121.0 110 / 191022.410.8 2.026.7 26.9
2016-Jun-27 14:00N 24°42' W 052°36'2020.3 110 / 191022.4 26.7 27.2
2016-Jun-27 13:00N 24°30' W 052°54'1616.2 110 / 211021.8 26.0 27.4
2016-Jun-27 12:00N 24°18' W 053°06'4120.3 110 / 221021.5 5.4 26.2 27.2
2016-Jun-27 10:00N 23°48' W 053°36'1616.3 110 / 211020.7 25.2 27.2
2016-Jun-27 09:00N 23°36' W 053°48'4120.4 110 / 211020.310.8 24.9 27.4
2016-Jun-27 07:00N 23°06' W 054°18'2020.5 110 / 181019.4 26.4 27.4
2016-Jun-27 06:00N 22°54' W 054°36'2121.1 100 / 181019.4 5.4 2.026.4 27.4
2016-Jun-27 05:00N 22°36' W 054°48'2120.5 110 / 161019.5 26.2 27.4
2016-Jun-27 04:00N 22°24' W 055°06'7819.5 110 / 241019.1 25.7 27.4
2016-Jun-27 00:00N 21°24' W 056°00'3718.7 120 / 141019.6 5.4 25.9 27.7
2016-Jun-26 22:00N 20°54' W 056°24'2120.7 110 / 141018.0 26.9 27.9
2016-Jun-26 21:00N 20°42' W 056°42'1616.4 100 / 131017.6 27.0 28.2
2016-Jun-26 20:00N 20°30' W 056°54'2121.2 090 / 101017.4 27.4 28.2
2016-Jun-26 19:00N 20°12' W 057°06'2120.7 090 / 91017.5 27.4 28.2
2016-Jun-26 18:00N 20°00' W 057°24'2121.2 100 / 121017.410.8 2.027.4 28.2
2016-Jun-26 17:00N 19°42' W 057°36'1616.5 100 / 111017.8 27.7 28.0
2016-Jun-26 16:00N 19°30' W 057°48'2524.7 090 / 111017.9 27.7 28.2
2016-Jun-26 15:00N 19°12' W 058°06'1716.5 100 / 141018.0 27.9 28.2
2016-Jun-26 14:00N 19°00' W 058°18'2121.3 100 / 141018.1 27.7 28.0
2016-Jun-26 13:00N 18°42' W 058°30'1716.5 100 / 151018.1 27.5 28.0
2016-Jun-26 12:00N 18°30' W 058°42'2120.9 090 / 151017.7 5.4 1.027.5 28.0
2016-Jun-26 11:00N 18°18' W 059°00'2121.3 090 / 161017.5 27.2 28.0
2016-Jun-26 10:00N 18°00' W 059°12'1716.6 090 / 151017.0 27.2 28.0
2016-Jun-26 09:00N 17°48' W 059°24'1716.6 080 / 181016.3 27.2 28.2
2016-Jun-26 08:00N 17°36' W 059°36'2121.3 090 / 201015.9 27.2 28.4
2016-Jun-26 07:00N 17°18' W 059°48'2121.0 090 / 181016.0 27.4 28.4
2016-Jun-26 06:00N 17°06' W 060°06'2121.3 080 / 161016.2 5.4 2.026.9 28.2
2016-Jun-26 05:00N 16°48' W 060°18'1716.6 080 / 131016.5 27.4 28.4
2016-Jun-26 04:00N 16°36' W 060°30'2121.4 100 / 161017.2 27.9 28.4
2016-Jun-26 03:00N 16°18' W 060°42'2121.0 090 / 171017.6 5.4 3.027.7 28.4
2016-Jun-26 02:00N 16°06' W 061°00'1717.3 100 / 111017.6 27.9 28.4
2016-Jun-26 01:00N 16°06' W 061°18'1313.0 090 / 121017.1 27.9 28.4
2016-Jun-26 00:00N 16°12' W 061°30'0 0.0 080 / 71016.9 27.7 29.4
2016-Jun-25 10:00N 16°12' W 061°30'6 6.0 090 / 11016.6 26.9 29.4
2016-Jun-25 09:00N 16°06' W 061°30'2412.0 080 / 161015.8 27.9 28.4
2016-Jun-25 07:00N 15°42' W 061°30'3115.3 080 / 281014.9 28.0 28.4
2016-Jun-25 05:00N 15°12' W 061°36'1716.7 100 / 131015.5 28.4 28.4
2016-Jun-25 04:00N 15°00' W 061°24'1313.3 080 / 201015.8 27.9 28.4
2016-Jun-25 03:00N 14°48' W 061°18'1313.3 090 / 131016.3 28.0 28.4
2016-Jun-25 02:00N 14°36' W 061°12'   070 / 141016.6 27.4 28.4
2016-Jun-22 10:00N 14°36' W 061°06'1313.1 090 / 111017.0 26.5 28.2
2016-Jun-22 09:00N 14°42' W 061°18'2726.7 100 / 81016.7 27.4 28.2
2016-Jun-22 08:00N 15°06' W 061°30'1918.9 090 / 191016.5 27.7 28.4
2016-Jun-22 07:00N 15°24' W 061°36'1918.9 090 / 71016.9 27.0 28.4
2016-Jun-22 06:00N 15°42' W 061°30'1818.0 090 / 171017.3 27.4 28.4
2016-Jun-22 05:00N 16°00' W 061°30'1212.0 100 / 161017.7 27.7 28.4
2016-Jun-22 04:00N 16°12' W 061°30'150 5.4 080 / 31018.8 26.5 29.2
2016-Jun-21 00:00N 17°42' W 059°24'1716.6 060 / 211018.810.8 27.7 28.4
2016-Jun-20 23:00N 17°54' W 059°12'2524.8 060 / 201018.5 27.5 28.2
2016-Jun-20 22:00N 18°12' W 058°54'1716.5 060 / 191018.5 27.7 28.2
2016-Jun-20 21:00N 18°24' W 058°42'2121.3 060 / 191018.3 27.9 28.2
2016-Jun-20 20:00N 18°42' W 058°30'2120.8 070 / 191018.5 27.9 28.2
2016-Jun-20 19:00N 18°54' W 058°12'3818.8 060 / 191019.4 28.2 28.2
2016-Jun-20 17:00N 19°24' W 057°48'2524.7 070 / 181020.8 28.0 28.0
2016-Jun-20 16:00N 19°42' W 057°30'1616.5 070 / 181021.4 27.9 27.9
2016-Jun-20 15:00N 19°54' W 057°18'2121.2 070 / 181021.6 5.4 1.027.9 27.9
2016-Jun-20 14:00N 20°12' W 057°06'2120.7 070 / 191021.7 27.7 27.9
2016-Jun-20 13:00N 20°24' W 056°48'   080 / 191022.1 27.5 27.7

Dump ship's entire track history